createdAt,value
2019-01-03T00:00:35.271Z,33.40
2019-01-03T00:04:03.042Z,33.80
2019-01-03T00:07:31.514Z,33.10
2019-01-03T00:10:54.830Z,32.60
2019-01-03T00:14:18.275Z,34.00
2019-01-03T00:17:51.977Z,34.60
2019-01-03T00:21:14.968Z,34.70
2019-01-03T00:24:43.086Z,34.70
2019-01-03T00:28:05.850Z,34.60
2019-01-03T00:31:25.699Z,34.60
2019-01-03T00:34:45.402Z,34.50
2019-01-03T00:38:18.626Z,34.40
2019-01-03T00:41:51.958Z,34.20
2019-01-03T00:45:07.693Z,34.10
2019-01-03T00:48:50.467Z,34.00
2019-01-03T00:52:24.114Z,33.90
2019-01-03T00:55:57.429Z,33.80
2019-01-03T00:59:21.106Z,33.70
2019-01-03T01:02:45.459Z,33.60
2019-01-03T01:05:58.803Z,33.50
2019-01-03T01:09:33.307Z,33.50
2019-01-03T01:12:56.371Z,33.40
2019-01-03T01:16:26.148Z,33.40
2019-01-03T01:19:46.122Z,33.30
2019-01-03T01:23:09.598Z,33.20
2019-01-03T01:26:33.987Z,33.20
2019-01-03T01:30:01.161Z,33.00
2019-01-03T01:33:37.831Z,32.60
2019-01-03T01:37:02.178Z,32.60
2019-01-03T01:40:19.347Z,32.70
2019-01-03T01:43:43.699Z,33.30
2019-01-03T01:47:13.783Z,33.80
2019-01-03T01:50:37.727Z,32.10
2019-01-03T01:53:58.955Z,31.60
2019-01-03T01:57:22.047Z,31.60
2019-01-03T02:00:58.687Z,31.60
2019-01-03T02:04:32.110Z,31.50
2019-01-03T02:08:08.643Z,31.50
2019-01-03T02:11:33.786Z,31.50
2019-01-03T02:14:58.247Z,31.30
2019-01-03T02:18:26.719Z,31.40
2019-01-03T02:22:03.443Z,31.40
2019-01-03T02:25:46.219Z,31.60
2019-01-03T02:29:13.155Z,31.70
2019-01-03T02:32:36.454Z,31.70
2019-01-03T02:36:00.031Z,31.80
2019-01-03T02:39:28.470Z,31.80
2019-01-03T02:42:52.827Z,31.80
2019-01-03T02:46:32.358Z,32.00
2019-01-03T02:50:02.499Z,31.60
2019-01-03T02:53:26.026Z,31.90
2019-01-03T02:56:49.477Z,31.80
2019-01-03T03:00:12.595Z,31.90
2019-01-03T03:03:42.126Z,31.70
2019-01-03T03:07:05.171Z,32.00
2019-01-03T03:10:24.839Z,32.00
2019-01-03T03:13:49.200Z,31.80
2019-01-03T03:17:12.138Z,31.90
2019-01-03T03:20:39.516Z,31.80
2019-01-03T03:23:54.592Z,32.00
2019-01-03T03:27:18.029Z,32.10
2019-01-03T03:30:54.781Z,32.00
2019-01-03T03:34:28.964Z,32.00
2019-01-03T03:38:03.771Z,32.10
2019-01-03T03:41:34.395Z,32.10
2019-01-03T03:44:52.903Z,32.00
2019-01-03T03:48:14.486Z,31.80
2019-01-03T03:51:37.482Z,32.20
2019-01-03T03:55:04.606Z,32.00
2019-01-03T03:58:44.728Z,32.30
2019-01-03T04:02:07.729Z,32.00
2019-01-03T04:05:30.277Z,32.10
2019-01-03T04:08:53.532Z,32.00
2019-01-03T04:12:16.794Z,32.00
2019-01-03T04:15:40.122Z,32.10
2019-01-03T04:19:03.455Z,31.90
2019-01-03T04:22:24.799Z,31.90
2019-01-03T04:25:55.307Z,32.00
2019-01-03T04:29:18.606Z,32.20
2019-01-03T04:32:42.963Z,31.70
2019-01-03T04:36:22.427Z,31.90
2019-01-03T04:39:45.466Z,32.00
2019-01-03T04:43:03.297Z,32.00
2019-01-03T04:46:38.166Z,32.90
2019-01-03T04:50:01.367Z,32.00
2019-01-03T04:53:25.730Z,31.90
2019-01-03T04:57:08.581Z,32.10
2019-01-03T05:00:32.930Z,32.90
2019-01-03T05:04:12.374Z,32.00
2019-01-03T05:07:39.534Z,32.20
2019-01-03T05:10:59.283Z,32.20
2019-01-03T05:14:26.958Z,32.30
2019-01-03T05:17:57.361Z,32.30
2019-01-03T05:21:20.659Z,32.30
2019-01-03T05:25:00.486Z,32.50
2019-01-03T05:28:36.979Z,32.60
2019-01-03T05:32:00.409Z,33.00
2019-01-03T05:35:31.054Z,33.00
2019-01-03T05:38:54.366Z,33.20
2019-01-03T05:42:17.343Z,33.30
2019-01-03T05:45:30.555Z,33.50
2019-01-03T05:48:57.666Z,33.50
2019-01-03T05:52:20.778Z,33.50
2019-01-03T05:55:54.414Z,33.40
2019-01-03T05:59:17.740Z,33.40
2019-01-03T06:02:44.295Z,33.40
2019-01-03T06:06:27.050Z,33.30
2019-01-03T06:09:50.924Z,33.70
2019-01-03T06:13:13.982Z,33.80
2019-01-03T06:16:38.646Z,34.10
2019-01-03T06:20:02.035Z,34.00
2019-01-03T06:23:26.857Z,34.00
2019-01-03T06:27:00.485Z,34.00
2019-01-03T06:30:24.240Z,34.10
2019-01-03T06:33:44.216Z,33.90
2019-01-03T06:37:24.142Z,33.90
2019-01-03T06:41:00.627Z,33.90
2019-01-03T06:44:25.262Z,33.80
2019-01-03T06:47:48.719Z,33.60
2019-01-03T06:51:09.708Z,33.70
2019-01-03T06:54:52.921Z,33.30
2019-01-03T06:58:29.430Z,33.60
2019-01-03T07:01:55.738Z,33.50
2019-01-03T07:05:32.502Z,33.70
2019-01-03T07:08:55.639Z,33.60
2019-01-03T07:12:19.051Z,33.70
2019-01-03T07:15:58.966Z,33.60
2019-01-03T07:19:22.488Z,33.50
2019-01-03T07:22:58.887Z,33.60
2019-01-03T07:26:38.759Z,33.40
2019-01-03T07:30:03.242Z,33.50
2019-01-03T07:33:30.847Z,34.10
2019-01-03T07:36:58.256Z,33.70
2019-01-03T07:40:31.943Z,33.80
2019-01-03T07:43:55.182Z,33.80
2019-01-03T07:47:18.669Z,33.80
2019-01-03T07:50:55.307Z,33.90
2019-01-03T07:54:19.458Z,34.40
2019-01-03T07:57:43.974Z,34.70
2019-01-03T08:01:07.242Z,34.60
2019-01-03T08:04:44.074Z,34.70
2019-01-03T08:08:11.247Z,34.60
2019-01-03T08:11:51.134Z,34.50
2019-01-03T08:15:29.324Z,34.40
2019-01-03T08:18:52.425Z,34.20
2019-01-03T08:22:26.123Z,34.10
2019-01-03T08:25:50.631Z,34.10
2019-01-03T08:29:14.110Z,33.90
2019-01-03T08:32:53.699Z,33.90
2019-01-03T08:36:18.358Z,33.80
2019-01-03T08:39:55.066Z,33.50
2019-01-03T08:43:27.049Z,33.30
2019-01-03T08:46:51.470Z,32.90
2019-01-03T08:50:14.558Z,33.00
2019-01-03T08:53:38.555Z,32.50
2019-01-03T08:57:12.026Z,33.40
2019-01-03T09:01:08.079Z,33.40
2019-01-03T09:04:31.589Z,33.50
2019-01-03T09:08:02.388Z,33.70
2019-01-03T09:11:30.243Z,33.70
2019-01-03T09:15:06.874Z,33.80
2019-01-03T09:18:30.023Z,33.70
2019-01-03T09:21:59.527Z,33.70
2019-01-03T09:25:23.270Z,33.70
2019-01-03T09:28:46.991Z,33.70
2019-01-03T09:32:10.435Z,33.80
2019-01-03T09:35:50.428Z,33.80
2019-01-03T09:39:14.994Z,34.00
2019-01-03T09:42:51.718Z,34.70
2019-01-03T09:45:57.354Z,29.80
2019-01-03T09:49:03.866Z,27.90
2019-01-03T09:52:09.583Z,26.10
2019-01-03T09:55:15.398Z,25.80
2019-01-03T09:58:21.027Z,25.70
2019-01-03T10:01:26.579Z,28.20
2019-01-03T10:09:18.023Z,38.90
2019-01-03T10:12:23.678Z,37.50
2019-01-03T10:15:29.414Z,37.40
2019-01-03T10:18:35.462Z,38.80
2019-01-03T10:21:41.127Z,40.30
2019-01-03T10:24:46.794Z,40.70
2019-01-03T10:27:54.156Z,41.20
2019-01-03T10:31:00.131Z,40.90
2019-01-03T10:34:05.778Z,31.70
2019-01-03T10:37:11.434Z,34.70
2019-01-03T10:40:17.110Z,35.80
2019-01-03T10:43:23.686Z,36.10
2019-01-03T10:46:29.364Z,36.30
2019-01-03T10:49:34.966Z,36.60
2019-01-03T10:52:40.619Z,36.60
2019-01-03T10:55:46.293Z,36.80
2019-01-03T10:58:51.947Z,36.70
2019-01-03T11:01:57.576Z,36.90
2019-01-03T11:05:03.260Z,36.80
2019-01-03T11:08:08.908Z,36.80
2019-01-03T11:11:14.530Z,36.80
2019-01-03T11:14:20.183Z,36.70
2019-01-03T11:17:25.847Z,36.60
2019-01-03T11:20:31.515Z,36.60
2019-01-03T11:23:37.207Z,36.30
2019-01-03T11:26:42.933Z,36.30
2019-01-03T11:29:50.383Z,36.20
2019-01-03T11:32:56.044Z,35.90
2019-01-03T11:36:02.649Z,36.00
2019-01-03T11:39:08.711Z,35.80
2019-01-03T11:42:14.372Z,35.80
2019-01-03T11:45:19.986Z,35.80
2019-01-03T11:48:25.671Z,35.90
2019-01-03T11:51:31.452Z,35.90
2019-01-03T11:54:37.081Z,36.00
2019-01-03T11:57:43.991Z,36.00
2019-01-03T12:00:49.607Z,36.20
2019-01-03T12:03:55.394Z,36.30
2019-01-03T12:07:01.015Z,36.30
2019-01-03T12:10:06.918Z,36.40
2019-01-03T12:13:12.514Z,36.40
2019-01-03T12:16:18.514Z,35.80
2019-01-03T12:19:24.239Z,36.40
2019-01-03T12:22:30.023Z,36.30
2019-01-03T12:25:35.651Z,36.00
2019-01-03T12:28:41.351Z,36.00
2019-01-03T12:31:47.079Z,35.90
2019-01-03T12:34:53.188Z,35.80
2019-01-03T12:38:00.250Z,35.90
2019-01-03T12:41:05.931Z,35.70
2019-01-03T12:44:12.654Z,35.70
2019-01-03T12:47:18.507Z,35.40
2019-01-03T12:50:24.435Z,35.40
2019-01-03T12:53:30.187Z,35.60
2019-01-03T12:56:35.843Z,35.40
2019-01-03T12:59:41.595Z,35.40
2019-01-03T13:02:47.306Z,35.60
2019-01-03T13:05:53.103Z,35.30
2019-01-03T13:08:58.716Z,35.40
2019-01-03T13:12:04.553Z,35.20
2019-01-03T13:15:10.830Z,35.20
2019-01-03T13:18:16.507Z,35.40
2019-01-03T13:21:22.130Z,35.60
2019-01-03T13:24:27.944Z,35.60
2019-01-03T13:27:33.631Z,35.30
2019-01-03T13:30:39.322Z,35.30
2019-01-03T13:33:45.056Z,35.60
2019-01-03T13:36:50.775Z,35.60
2019-01-03T13:39:56.580Z,36.20
2019-01-03T13:43:03.367Z,36.40
2019-01-03T13:46:09.007Z,36.40
2019-01-03T13:49:16.486Z,36.40
2019-01-03T13:52:23.058Z,35.50
2019-01-03T13:55:28.771Z,35.40
2019-01-03T13:58:34.496Z,35.70
2019-01-03T14:01:40.126Z,35.20
2019-01-03T14:04:45.975Z,35.10
2019-01-03T14:07:51.661Z,35.20
2019-01-03T14:10:58.875Z,35.20
2019-01-03T14:14:04.583Z,35.10
2019-01-03T14:17:10.327Z,34.90
2019-01-03T14:20:16.091Z,35.00
2019-01-03T14:23:21.764Z,35.00
2019-01-03T14:26:27.399Z,34.90
2019-01-03T14:29:33.050Z,34.70
2019-01-03T14:32:38.803Z,34.80
2019-01-03T14:35:46.151Z,34.40
2019-01-03T14:38:52.010Z,35.00
2019-01-03T14:41:57.623Z,35.10
2019-01-03T14:45:04.275Z,35.70
2019-01-03T14:48:10.034Z,35.50
2019-01-03T14:51:15.813Z,35.30
2019-01-03T14:54:21.460Z,35.10
2019-01-03T14:57:27.206Z,34.70
2019-01-03T15:00:32.867Z,34.40
2019-01-03T15:03:38.627Z,34.20
2019-01-03T15:06:45.275Z,33.90
2019-01-03T15:09:50.955Z,33.80
2019-01-03T15:12:56.608Z,33.60
2019-01-03T15:16:02.367Z,33.50
2019-01-03T15:19:07.993Z,33.30
2019-01-03T15:22:13.647Z,33.20
2019-01-03T15:25:19.318Z,33.10
2019-01-03T15:28:25.085Z,33.00
2019-01-03T15:31:32.430Z,33.00
2019-01-03T15:34:38.122Z,32.90
2019-01-03T15:37:43.755Z,32.90
2019-01-03T15:40:49.427Z,32.90
2019-01-03T15:43:55.078Z,32.90
2019-01-03T15:47:00.712Z,32.90
2019-01-03T15:50:06.783Z,32.90
2019-01-03T15:53:12.623Z,32.90
2019-01-03T15:56:18.282Z,32.00
2019-01-03T15:59:23.966Z,31.90
2019-01-03T16:02:29.821Z,31.70
2019-01-03T16:05:35.455Z,32.30
2019-01-03T16:08:41.239Z,33.00
2019-01-03T16:11:46.875Z,33.30
2019-01-03T16:14:52.611Z,33.50
2019-01-03T16:17:58.288Z,33.50
2019-01-03T16:21:04.031Z,33.40
2019-01-03T16:24:09.711Z,33.40
2019-01-03T16:27:15.375Z,33.30
2019-01-03T16:30:20.983Z,33.10
2019-01-03T16:33:26.744Z,33.00
2019-01-03T16:36:32.403Z,32.80
2019-01-03T16:39:38.067Z,32.90
2019-01-03T16:42:44.941Z,32.90
2019-01-03T16:45:51.817Z,32.80
2019-01-03T16:48:57.479Z,32.70
2019-01-03T16:52:03.259Z,32.60
2019-01-03T16:55:09.082Z,32.40
2019-01-03T16:58:16.511Z,32.30
2019-01-03T17:01:22.137Z,32.50
2019-01-03T17:04:28.027Z,32.40
2019-01-03T17:07:33.625Z,32.10
2019-01-03T17:10:39.524Z,32.30
2019-01-03T17:13:45.152Z,32.70
2019-01-03T17:16:51.350Z,32.70
2019-01-03T17:19:56.967Z,32.70
2019-01-03T17:23:02.642Z,32.70
2019-01-03T17:26:08.275Z,32.70
2019-01-03T17:29:14.063Z,32.60
2019-01-03T17:32:19.682Z,32.70
2019-01-03T17:35:25.431Z,32.60
2019-01-03T17:38:31.066Z,32.50
2019-01-03T17:41:36.748Z,32.50
2019-01-03T17:44:42.495Z,32.50
2019-01-03T17:47:48.167Z,34.10
2019-01-03T17:50:53.786Z,34.00
2019-01-03T17:53:59.431Z,32.30
2019-01-03T17:57:05.111Z,32.00
2019-01-03T18:00:14.127Z,32.10
2019-01-03T18:03:19.832Z,32.00
2019-01-03T18:06:25.671Z,32.20
2019-01-03T18:09:32.757Z,32.10
2019-01-03T18:12:38.396Z,32.10
2019-01-03T18:15:44.051Z,32.20
2019-01-03T18:18:51.402Z,32.40
2019-01-03T18:21:57.203Z,32.00
2019-01-03T18:25:02.851Z,32.00
2019-01-03T18:28:08.494Z,32.40
2019-01-03T18:31:14.279Z,32.40
2019-01-03T18:34:19.888Z,32.60
2019-01-03T18:37:25.559Z,32.40
2019-01-03T18:40:32.952Z,32.70
2019-01-03T18:43:38.613Z,32.60
2019-01-03T18:46:44.235Z,32.80
2019-01-03T18:49:49.916Z,32.90
2019-01-03T18:52:55.603Z,32.80
2019-01-03T18:56:01.204Z,32.90
2019-01-03T18:59:06.979Z,32.70
2019-01-03T19:02:12.603Z,32.60
2019-01-03T19:05:18.292Z,32.50
2019-01-03T19:08:23.931Z,32.70
2019-01-03T19:11:29.566Z,32.40
2019-01-03T19:14:35.343Z,32.50
2019-01-03T19:17:40.863Z,32.60
2019-01-03T19:20:46.543Z,32.40
2019-01-03T19:23:55.459Z,32.50
2019-01-03T19:27:00.490Z,32.70
2019-01-03T19:30:06.682Z,32.40
2019-01-03T19:33:12.365Z,32.30
2019-01-03T19:36:19.387Z,32.50
2019-01-03T19:39:25.131Z,33.30
2019-01-03T19:42:30.823Z,32.20
2019-01-03T19:45:36.643Z,32.50
2019-01-03T19:48:42.331Z,32.10
2019-01-03T19:51:48.362Z,32.30
2019-01-03T19:54:54.027Z,31.70
2019-01-03T19:57:59.735Z,31.40
2019-01-03T20:01:05.557Z,30.90
2019-01-03T20:04:11.249Z,31.10
2019-01-03T20:07:16.975Z,32.40
2019-01-03T20:10:24.843Z,33.30
2019-01-03T20:13:30.532Z,33.20
2019-01-03T20:16:36.315Z,32.80
2019-01-03T20:19:42.110Z,32.50
2019-01-03T20:22:48.294Z,32.20
2019-01-03T20:25:53.931Z,31.80
2019-01-03T20:28:59.964Z,31.50
2019-01-03T20:32:05.663Z,31.40
2019-01-03T20:35:11.498Z,31.00
2019-01-03T20:38:17.178Z,30.90
2019-01-03T20:41:23.073Z,30.70
2019-01-03T20:44:28.688Z,31.30
2019-01-03T20:47:34.372Z,30.30
2019-01-03T20:50:41.031Z,30.20
2019-01-03T20:53:46.807Z,30.20
2019-01-03T20:56:55.123Z,30.20
2019-01-03T21:00:01.100Z,30.20
2019-01-03T21:03:07.716Z,30.20
2019-01-03T21:06:15.012Z,30.20
2019-01-03T21:14:04.619Z,30.10
2019-01-03T21:17:41.719Z,30.00
2019-01-03T21:21:05.430Z,30.00
2019-01-03T21:24:11.360Z,30.10
2019-01-03T21:27:16.987Z,30.30
2019-01-03T21:35:48.690Z,29.70
2019-01-03T21:38:54.461Z,29.90
2019-01-03T21:42:00.211Z,29.70
2019-01-03T21:45:06.064Z,29.40
2019-01-03T21:48:11.813Z,29.40
2019-01-03T21:51:17.375Z,29.50
2019-01-03T21:54:23.110Z,29.30
2019-01-03T21:57:29.032Z,29.20
2019-01-03T22:00:36.489Z,29.10
2019-01-03T22:03:42.167Z,29.30
2019-01-03T22:06:47.986Z,29.10
2019-01-03T22:09:53.853Z,29.10
2019-01-03T22:12:59.790Z,29.10
2019-01-03T22:16:06.611Z,29.00
2019-01-03T22:19:13.819Z,29.00
2019-01-03T22:22:20.614Z,29.10
2019-01-03T22:25:26.317Z,29.20
2019-01-03T22:28:32.085Z,29.10
2019-01-03T22:31:37.745Z,29.40
2019-01-03T22:34:44.375Z,30.10
2019-01-03T22:37:50.154Z,29.50
2019-01-03T22:40:55.779Z,29.50
2019-01-03T22:44:03.167Z,29.30
2019-01-03T22:47:10.802Z,29.50
2019-01-03T22:50:16.431Z,29.50
2019-01-03T22:53:22.283Z,29.50
2019-01-03T22:56:27.943Z,30.10
2019-01-03T22:59:33.615Z,31.10
2019-01-03T23:02:39.374Z,31.60
2019-01-03T23:05:46.291Z,32.30
2019-01-03T23:08:53.045Z,34.20
2019-01-03T23:11:58.679Z,33.50
2019-01-03T23:15:04.647Z,33.90
2019-01-03T23:18:10.499Z,34.10
2019-01-03T23:21:17.131Z,34.00
2019-01-03T23:24:22.933Z,34.00
2019-01-03T23:27:28.666Z,34.00
2019-01-03T23:30:34.447Z,33.80
2019-01-03T23:33:40.071Z,32.60
2019-01-03T23:36:45.744Z,32.40
2019-01-03T23:39:51.618Z,32.50
2019-01-03T23:42:57.339Z,31.80
2019-01-03T23:46:03.118Z,31.10
2019-01-03T23:49:10.467Z,30.90
2019-01-03T23:52:16.279Z,30.80
2019-01-03T23:55:23.315Z,30.80
2019-01-03T23:58:29.158Z,30.90
